createdAt,value
2018-02-06T00:01:40.769Z,99312.08
2018-02-06T00:04:08.379Z,99315.66
2018-02-06T00:06:35.970Z,99311.28
2018-02-06T00:09:03.619Z,99312.27
2018-02-06T00:11:31.231Z,99314.63
2018-02-06T00:13:58.825Z,99312.25
2018-02-06T00:16:26.478Z,99311.70
2018-02-06T00:18:54.140Z,99306.84
2018-02-06T00:21:21.740Z,99301.91
2018-02-06T00:23:49.324Z,99295.91
2018-02-06T00:26:16.964Z,99305.27
2018-02-06T00:28:44.547Z,99299.30
2018-02-06T00:31:12.133Z,99299.97
2018-02-06T00:33:40.052Z,99307.94
2018-02-06T00:36:07.693Z,99300.09
2018-02-06T00:38:35.321Z,99296.80
2018-02-06T00:41:20.299Z,99300.05
2018-02-06T00:43:47.968Z,99302.73
2018-02-06T00:46:15.630Z,99297.10
2018-02-06T00:48:43.374Z,99300.53
2018-02-06T00:51:11.096Z,99297.25
2018-02-06T00:53:38.681Z,99298.64
2018-02-06T00:56:06.619Z,99295.27
2018-02-06T00:58:34.206Z,99300.73
2018-02-06T01:01:01.836Z,99300.72
2018-02-06T01:03:29.696Z,99295.72
2018-02-06T01:05:57.288Z,99299.84
2018-02-06T01:08:24.877Z,99301.66
2018-02-06T01:10:52.533Z,99289.04
2018-02-06T01:13:20.168Z,99286.61
2018-02-06T01:15:47.742Z,99293.70
2018-02-06T01:18:15.395Z,99287.80
2018-02-06T01:20:42.969Z,99287.52
2018-02-06T01:23:10.555Z,99284.98
2018-02-06T01:25:38.473Z,99284.55
2018-02-06T01:28:06.054Z,99270.85
2018-02-06T01:30:33.697Z,99269.60
2018-02-06T01:33:01.429Z,99269.80
2018-02-06T01:35:29.015Z,99267.84
2018-02-06T01:37:56.628Z,99259.50
2018-02-06T01:40:24.247Z,99251.98
2018-02-06T01:42:51.817Z,99253.52
2018-02-06T01:45:19.426Z,99258.19
2018-02-06T01:47:47.079Z,99255.15
2018-02-06T01:50:14.674Z,99257.42
2018-02-06T01:52:42.318Z,99254.63
2018-02-06T01:55:09.956Z,99249.77
2018-02-06T01:57:37.660Z,99241.36
2018-02-06T02:00:05.292Z,99233.45
2018-02-06T02:02:33.001Z,99236.88
2018-02-06T02:05:00.674Z,99231.17
2018-02-06T02:07:28.382Z,99233.02
2018-02-06T02:09:56.010Z,99232.36
2018-02-06T02:12:23.616Z,99232.36
2018-02-06T02:14:51.213Z,99223.04
2018-02-06T02:17:18.886Z,99227.41
2018-02-06T02:19:46.499Z,99225.78
2018-02-06T02:22:14.086Z,99229.41
2018-02-06T02:24:41.736Z,99220.08
2018-02-06T02:27:09.324Z,99215.66
2018-02-06T02:29:36.907Z,99216.47
2018-02-06T02:32:04.906Z,99217.59
2018-02-06T02:34:32.463Z,99211.27
2018-02-06T02:37:00.046Z,99210.82
2018-02-06T02:39:28.024Z,99207.83
2018-02-06T04:40:01.398Z,99266.18
2018-02-06T04:42:28.981Z,99266.73
2018-02-06T04:44:56.815Z,99267.98
2018-02-06T04:47:24.401Z,99268.13
2018-02-06T04:49:52.001Z,99269.45
2018-02-06T04:52:19.621Z,99270.53
2018-02-06T04:54:47.247Z,99266.29
2018-02-06T04:57:14.884Z,99259.98
2018-02-06T04:59:42.574Z,99264.39
2018-02-06T05:02:10.232Z,99265.39
2018-02-06T05:04:37.806Z,99279.83
2018-02-06T05:07:05.433Z,99287.97
2018-02-06T05:09:33.080Z,99298.18
2018-02-06T05:12:00.664Z,99297.70
2018-02-06T05:14:28.504Z,99295.13
2018-02-06T05:16:56.094Z,99298.72
2018-02-06T05:19:23.681Z,99302.28
2018-02-06T05:21:51.357Z,99305.23
2018-02-06T05:24:18.932Z,99300.64
2018-02-06T05:26:46.634Z,99308.92
2018-02-06T05:29:14.294Z,99311.84
2018-02-06T05:31:41.944Z,99307.45
2018-02-06T05:34:09.582Z,99312.55
2018-02-06T05:36:38.186Z,99313.36
2018-02-06T05:39:05.851Z,99325.33
2018-02-06T05:41:33.485Z,99331.14
2018-02-06T05:44:01.116Z,99333.49
2018-02-06T05:46:28.703Z,99334.56
2018-02-06T05:48:56.295Z,99338.97
2018-02-06T05:51:23.976Z,99335.91
2018-02-06T05:53:51.554Z,99333.86
2018-02-06T05:56:19.157Z,99332.23
2018-02-06T05:58:47.868Z,99340.68
2018-02-06T06:01:15.455Z,99334.14
2018-02-06T06:03:43.781Z,99341.80
2018-02-06T06:06:12.070Z,99336.23
2018-02-06T06:08:39.725Z,99339.52
2018-02-06T06:11:07.362Z,99335.02
2018-02-06T06:13:35.046Z,99333.50
2018-02-06T06:16:02.665Z,99337.99
2018-02-06T06:18:30.276Z,99337.25
2018-02-06T06:20:57.968Z,99335.38
2018-02-06T06:23:25.535Z,99336.91
2018-02-06T06:25:53.638Z,99346.08
2018-02-06T06:28:21.293Z,99349.11
2018-02-06T06:30:48.949Z,99347.09
2018-02-06T06:33:16.561Z,99354.08
2018-02-06T06:35:44.241Z,99364.84
2018-02-06T06:38:11.890Z,99369.16
2018-02-06T06:40:39.468Z,99369.38
2018-02-06T06:43:07.171Z,99372.42
2018-02-06T06:45:34.795Z,99365.42
2018-02-06T06:48:02.396Z,99365.05
2018-02-06T06:50:30.033Z,99363.78
2018-02-06T06:52:57.619Z,99364.00
2018-02-06T06:55:25.201Z,99364.53
2018-02-06T06:57:52.863Z,99362.61
2018-02-06T07:00:20.509Z,99367.05
2018-02-06T07:02:48.439Z,99364.56
2018-02-06T07:05:16.434Z,99375.08
2018-02-06T07:07:44.025Z,99368.52
2018-02-06T07:10:11.653Z,99363.77
2018-02-06T07:12:39.359Z,99364.84
2018-02-06T07:15:07.004Z,99370.91
2018-02-06T07:17:34.604Z,99367.87
2018-02-06T07:20:02.255Z,99370.77
2018-02-06T07:22:29.841Z,99375.89
2018-02-06T07:24:57.460Z,99385.73
2018-02-06T07:27:25.103Z,99380.23
2018-02-06T07:29:53.208Z,99389.34
2018-02-06T07:32:20.798Z,99390.13
2018-02-06T07:34:48.465Z,99391.80
2018-02-06T07:37:16.110Z,99396.06
2018-02-06T07:39:43.679Z,99400.23
2018-02-06T07:42:11.925Z,99387.89
2018-02-06T07:44:39.504Z,99391.25
2018-02-06T07:47:07.092Z,99382.19
2018-02-06T07:49:34.842Z,99384.93
2018-02-06T07:52:02.419Z,99387.22
2018-02-06T07:54:30.031Z,99382.98
2018-02-06T07:56:57.690Z,99387.25
2018-02-06T07:59:25.255Z,99379.36
2018-02-06T08:01:52.877Z,99381.92
2018-02-06T08:04:20.562Z,99384.37
2018-02-06T08:06:48.189Z,99382.09
2018-02-06T08:09:15.804Z,99381.88
2018-02-06T08:11:43.529Z,99382.77
2018-02-06T08:14:11.192Z,99384.12
2018-02-06T08:16:38.908Z,99373.44
2018-02-06T08:19:06.580Z,99373.79
2018-02-06T08:21:34.160Z,99368.78
2018-02-06T08:24:01.802Z,99375.28
2018-02-06T08:26:29.502Z,99379.94
2018-02-06T08:28:57.099Z,99381.30
2018-02-06T08:31:24.688Z,99384.17
2018-02-06T08:33:52.341Z,99388.27
2018-02-06T08:36:20.587Z,99396.43
2018-02-06T08:38:48.222Z,99389.24
2018-02-06T08:41:15.866Z,99393.15
2018-02-06T08:43:43.518Z,99396.30
2018-02-06T08:46:12.151Z,99385.44
2018-02-06T08:48:42.081Z,99383.66
2018-02-06T08:51:09.762Z,99384.39
2018-02-06T08:53:38.501Z,99392.38
2018-02-06T08:56:06.175Z,99391.42
2018-02-06T08:58:33.845Z,99387.41
2018-02-06T09:01:01.450Z,99387.28
2018-02-06T09:03:29.135Z,99386.11
2018-02-06T09:05:56.753Z,99388.97
2018-02-06T09:08:24.477Z,99388.64
2018-02-06T09:10:52.199Z,99391.89
2018-02-06T09:13:19.860Z,99385.87
2018-02-06T09:15:47.512Z,99386.28
2018-02-06T09:18:15.290Z,99393.30
2018-02-06T09:20:42.896Z,99393.64
2018-02-06T09:23:10.730Z,99385.48
2018-02-06T09:25:38.357Z,99383.03
2018-02-06T09:28:05.983Z,99392.59
2018-02-06T09:30:33.629Z,99390.08
2018-02-06T09:33:01.311Z,99393.95
2018-02-06T09:35:28.927Z,99395.66
2018-02-06T09:37:56.527Z,99387.67
2018-02-06T09:40:24.392Z,99385.33
2018-02-06T09:42:52.095Z,99393.08
2018-02-06T09:45:19.776Z,99388.19
2018-02-06T09:47:47.499Z,99386.93
2018-02-06T09:50:15.105Z,99396.24
2018-02-06T09:52:42.711Z,99390.11
2018-02-06T09:55:10.382Z,99381.42
2018-02-06T09:57:37.965Z,99377.62
2018-02-06T10:00:05.572Z,99375.45
2018-02-06T10:02:33.493Z,99365.24
2018-02-06T10:05:01.105Z,99358.04
2018-02-06T10:07:28.705Z,99361.59
2018-02-06T10:09:56.450Z,99356.91
2018-02-06T10:12:24.056Z,99349.95
2018-02-06T10:14:52.530Z,99356.07
2018-02-06T10:17:20.172Z,99337.77
2018-02-06T10:19:47.781Z,99336.58
2018-02-06T10:22:15.364Z,99334.06
2018-02-06T10:24:43.026Z,99338.45
2018-02-06T10:27:10.642Z,99338.80
2018-02-06T10:29:38.308Z,99333.59
2018-02-06T10:32:05.975Z,99326.21
2018-02-06T10:34:33.650Z,99328.09
2018-02-06T10:37:01.223Z,99326.66
2018-02-06T10:39:29.171Z,99334.43
2018-02-06T10:41:56.774Z,99323.37
2018-02-06T10:44:25.397Z,99328.26
2018-02-06T10:46:53.977Z,99311.02
2018-02-06T10:49:22.353Z,99319.31
2018-02-06T10:51:49.969Z,99314.80
2018-02-06T10:54:17.596Z,99317.17
2018-02-06T10:56:45.163Z,99315.16
2018-02-06T10:59:12.743Z,99320.29
2018-02-06T11:01:40.390Z,99311.86
2018-02-06T11:04:07.983Z,99311.86
2018-02-06T11:06:35.586Z,99310.34
2018-02-06T11:09:03.338Z,99311.74
2018-02-06T11:11:30.971Z,99305.33
2018-02-06T11:13:58.574Z,99311.23
2018-02-06T11:16:26.527Z,99311.55
2018-02-06T11:18:54.119Z,99310.59
2018-02-06T11:21:21.761Z,99304.83
2018-02-06T11:23:49.404Z,99309.38
2018-02-06T11:26:16.993Z,99288.48
2018-02-06T11:28:44.581Z,99283.86
2018-02-06T11:31:12.227Z,99289.24
2018-02-06T11:33:39.847Z,99285.91
2018-02-06T11:36:07.434Z,99277.55
2018-02-06T11:38:35.056Z,99277.95
2018-02-06T11:41:02.635Z,99278.20
2018-02-06T11:43:30.298Z,99275.32
2018-02-06T11:45:58.174Z,99273.52
2018-02-06T11:48:25.759Z,99275.69
2018-02-06T11:50:53.338Z,99269.69
2018-02-06T11:53:21.006Z,99271.52
2018-02-06T11:55:48.653Z,99274.53
2018-02-06T11:58:16.255Z,99277.26
2018-02-06T12:00:43.871Z,99274.30
2018-02-06T12:03:12.070Z,99271.33
2018-02-06T12:05:39.653Z,99263.89
2018-02-06T12:08:07.308Z,99269.05
2018-02-06T12:10:35.331Z,99260.66
2018-02-06T12:13:03.024Z,99260.47
2018-02-06T12:15:30.657Z,99255.46
2018-02-06T12:17:58.241Z,99245.50
2018-02-06T12:20:25.837Z,99230.30
2018-02-06T12:22:53.517Z,99230.41
2018-02-06T12:25:21.149Z,99225.83
2018-02-06T12:27:48.744Z,99231.87
2018-02-06T12:30:16.374Z,99222.52
2018-02-06T12:32:43.972Z,99227.25
2018-02-06T12:35:11.555Z,99228.32
2018-02-06T12:37:39.212Z,99233.13
2018-02-06T12:40:06.795Z,99233.59
2018-02-06T12:42:34.396Z,99238.35
2018-02-06T12:45:03.137Z,99238.89
2018-02-06T12:47:30.720Z,99237.02
2018-02-06T12:49:58.357Z,99237.31
2018-02-06T12:52:25.964Z,99234.82
2018-02-06T12:54:53.576Z,99242.44
2018-02-06T12:57:21.155Z,99245.71
2018-02-06T12:59:49.317Z,99240.77
2018-02-06T13:02:16.925Z,99245.96
2018-02-06T13:04:44.499Z,99243.23
2018-02-06T13:07:12.185Z,99251.43
2018-02-06T13:09:39.782Z,99250.84
2018-02-06T13:12:07.383Z,99243.39
2018-02-06T13:14:35.110Z,99247.45
2018-02-06T13:17:02.722Z,99255.45
2018-02-06T13:19:30.445Z,99255.81
2018-02-06T13:21:58.082Z,99250.88
2018-02-06T13:24:25.677Z,99252.05
2018-02-06T13:26:53.804Z,99240.38
2018-02-06T13:29:21.437Z,99242.55
2018-02-06T13:31:49.038Z,99238.79
2018-02-06T13:34:16.622Z,99239.11
2018-02-06T13:36:44.343Z,99238.20
2018-02-06T13:39:12.009Z,99231.86
2018-02-06T13:41:39.601Z,99238.60
2018-02-06T13:44:08.219Z,99226.98
2018-02-06T13:46:35.810Z,99225.84
2018-02-06T13:49:03.416Z,99226.27
2018-02-06T13:51:31.056Z,99224.52
2018-02-06T13:53:58.704Z,99226.35
2018-02-06T13:56:26.309Z,99231.66
2018-02-06T13:58:53.921Z,99228.17
2018-02-06T14:01:21.513Z,99226.28
2018-02-06T14:03:49.618Z,99227.42
2018-02-06T14:06:17.474Z,99232.38
2018-02-06T14:08:45.036Z,99234.91
2018-02-06T14:11:12.674Z,99237.48
2018-02-06T14:13:40.360Z,99247.61
2018-02-06T14:16:10.809Z,99238.89
2018-02-06T14:18:38.463Z,99244.67
2018-02-06T14:21:06.097Z,99244.67
2018-02-06T14:23:33.703Z,99240.11
2018-02-06T14:26:01.293Z,99241.72
2018-02-06T14:28:28.923Z,99246.78
2018-02-06T14:30:56.512Z,99239.58
2018-02-06T14:33:24.080Z,99247.12
2018-02-06T14:36:03.200Z,99245.03
2018-02-06T14:38:33.257Z,99244.90
2018-02-06T14:41:01.339Z,99253.73
2018-02-06T14:43:28.987Z,99249.07
2018-02-06T14:45:56.611Z,99247.44
2018-02-06T14:48:24.249Z,99239.05
2018-02-06T14:50:51.856Z,99251.52
2018-02-06T14:53:19.499Z,99253.98
2018-02-06T14:55:47.128Z,99245.80
2018-02-06T14:58:14.728Z,99254.16
2018-02-06T15:00:42.312Z,99255.41
2018-02-06T15:03:09.937Z,99248.92
2018-02-06T15:05:37.523Z,99249.56
2018-02-06T15:08:05.138Z,99240.88
2018-02-06T15:10:32.845Z,99249.62
2018-02-06T15:13:00.502Z,99255.81
2018-02-06T15:15:28.161Z,99249.56
2018-02-06T15:17:56.334Z,99245.47
2018-02-06T15:20:23.908Z,99245.70
2018-02-06T15:22:51.544Z,99245.12
2018-02-06T15:25:19.191Z,99242.39
2018-02-06T15:27:47.809Z,99247.00
2018-02-06T15:30:15.376Z,99249.56
2018-02-06T15:32:43.024Z,99257.28
2018-02-06T15:35:10.633Z,99254.77
2018-02-06T15:37:38.233Z,99256.48
2018-02-06T15:40:05.911Z,99256.13
2018-02-06T15:42:33.464Z,99264.56
2018-02-06T15:45:01.120Z,99254.41
2018-02-06T15:47:28.802Z,99263.22
2018-02-06T15:49:56.413Z,99270.87
2018-02-06T15:52:23.995Z,99270.73
2018-02-06T15:54:51.654Z,99273.06
2018-02-06T15:57:19.232Z,99271.15
2018-02-06T15:59:46.846Z,99263.21
2018-02-06T16:02:14.571Z,99270.77
2018-02-06T16:04:43.038Z,99269.56
2018-02-06T16:07:10.622Z,99274.49
2018-02-06T16:09:38.267Z,99272.09
2018-02-06T16:12:05.909Z,99270.73
2018-02-06T16:14:33.594Z,99277.93
2018-02-06T16:17:01.313Z,99279.33
2018-02-06T16:19:29.400Z,99279.68
2018-02-06T16:21:57.068Z,99287.16
2018-02-06T16:24:24.871Z,99291.28
2018-02-06T16:26:52.510Z,99295.77
2018-02-06T16:29:20.165Z,99297.30
2018-02-06T16:31:47.940Z,99297.94
2018-02-06T16:34:15.690Z,99305.78
2018-02-06T16:36:43.367Z,99313.58
2018-02-06T16:39:11.058Z,99306.64
2018-02-06T16:41:38.711Z,99301.89
2018-02-06T16:44:06.517Z,99308.81
2018-02-06T16:46:34.511Z,99309.02
2018-02-06T16:49:02.433Z,99305.92
2018-02-06T16:51:30.191Z,99307.81
2018-02-06T16:53:57.993Z,99312.26
2018-02-06T16:56:25.784Z,99313.72
2018-02-06T16:58:53.591Z,99318.14
2018-02-06T17:01:21.442Z,99313.30
2018-02-06T17:03:49.416Z,99320.61
2018-02-06T17:06:17.253Z,99320.34
2018-02-06T17:08:45.162Z,99317.56
2018-02-06T17:11:13.003Z,99320.18
2018-02-06T17:13:40.937Z,99318.30
2018-02-06T17:16:08.881Z,99314.76
2018-02-06T17:18:36.838Z,99324.51
2018-02-06T17:21:05.273Z,99324.78
2018-02-06T17:23:33.551Z,99324.51
2018-02-06T17:26:01.438Z,99332.39
2018-02-06T17:28:29.300Z,99328.80
2018-02-06T17:30:57.266Z,99337.15
2018-02-06T17:33:25.121Z,99341.11
2018-02-06T17:35:53.214Z,99342.88
2018-02-06T17:38:21.160Z,99336.08
2018-02-06T17:40:49.084Z,99331.42
2018-02-06T17:43:17.039Z,99338.13
2018-02-06T17:45:45.015Z,99337.00
2018-02-06T17:48:12.957Z,99327.73
2018-02-06T17:50:40.919Z,99327.03
2018-02-06T17:53:08.940Z,99331.91
2018-02-06T17:55:36.979Z,99337.00
2018-02-06T17:58:05.049Z,99335.08
2018-02-06T18:00:33.478Z,99337.91
2018-02-06T18:03:02.236Z,99341.72
2018-02-06T18:05:30.598Z,99345.56
2018-02-06T18:07:59.185Z,99343.55
2018-02-06T18:10:27.189Z,99345.80
2018-02-06T18:12:55.538Z,99341.41
2018-02-06T18:15:23.727Z,99343.79
2018-02-06T18:17:52.241Z,99340.08
2018-02-06T18:20:20.500Z,99342.17
2018-02-06T18:22:48.938Z,99343.27
2018-02-06T18:25:17.010Z,99347.20
2018-02-06T18:27:45.068Z,99348.30
2018-02-06T18:30:13.309Z,99350.83
2018-02-06T18:32:41.544Z,99356.73
2018-02-06T18:35:11.725Z,99353.30
2018-02-06T18:37:39.812Z,99350.30
2018-02-06T18:40:07.830Z,99351.48
2018-02-06T18:42:36.191Z,99348.93
2018-02-06T18:45:04.247Z,99352.67
2018-02-06T18:47:32.524Z,99361.41
2018-02-06T18:50:00.625Z,99361.80
2018-02-06T18:52:28.577Z,99360.89
2018-02-06T18:54:56.464Z,99362.08
2018-02-06T18:57:24.432Z,99365.06
2018-02-06T18:59:52.604Z,99363.05
2018-02-06T19:02:20.918Z,99363.53
2018-02-06T19:04:49.487Z,99366.11
2018-02-06T19:07:17.726Z,99365.26
2018-02-06T19:09:46.034Z,99363.43
2018-02-06T19:12:14.097Z,99367.67
2018-02-06T19:14:42.430Z,99371.91
2018-02-06T19:17:10.742Z,99371.38
2018-02-06T19:19:39.227Z,99377.38
2018-02-06T19:22:08.211Z,99375.67
2018-02-06T19:24:36.676Z,99381.45
2018-02-06T19:27:04.765Z,99387.67
2018-02-06T19:29:32.976Z,99391.11
2018-02-06T19:32:00.875Z,99396.89
2018-02-06T19:34:28.842Z,99398.48
2018-02-06T19:36:56.924Z,99403.73
2018-02-06T19:39:24.927Z,99409.02
2018-02-06T19:41:53.612Z,99411.22
2018-02-06T19:44:21.784Z,99418.41
2018-02-06T19:46:49.761Z,99421.78
2018-02-06T19:49:18.449Z,99417.02
2018-02-06T19:51:46.940Z,99419.47
2018-02-06T19:54:15.312Z,99412.47
2018-02-06T19:56:43.737Z,99416.33
2018-02-06T19:59:11.651Z,99412.95
2018-02-06T20:01:39.783Z,99421.09
2018-02-06T20:04:07.900Z,99410.61
2018-02-06T20:06:36.236Z,99415.98
2018-02-06T20:09:04.214Z,99419.88
2018-02-06T20:11:32.114Z,99415.49
2018-02-06T20:14:00.132Z,99416.13
2018-02-06T20:16:28.013Z,99424.11
2018-02-06T20:18:55.914Z,99417.36
2018-02-06T20:21:24.028Z,99417.84
2018-02-06T20:23:52.117Z,99422.40
2018-02-06T20:26:20.362Z,99415.96
2018-02-06T20:28:48.257Z,99419.92
2018-02-06T20:31:16.119Z,99426.45
2018-02-06T20:33:43.985Z,99425.59
2018-02-06T20:36:12.072Z,99417.34
2018-02-06T20:38:40.012Z,99414.55
2018-02-06T20:41:07.956Z,99416.92
2018-02-06T20:43:35.900Z,99415.95
2018-02-06T20:46:04.125Z,99416.44
2018-02-06T20:48:32.052Z,99417.17
2018-02-06T20:51:00.136Z,99413.59
2018-02-06T20:53:28.078Z,99416.16
2018-02-06T20:55:56.163Z,99413.36
2018-02-06T20:58:24.387Z,99406.94
2018-02-06T21:00:52.384Z,99406.94
2018-02-06T21:03:20.386Z,99408.33
2018-02-06T21:05:48.253Z,99409.66
2018-02-06T21:08:16.075Z,99407.47
2018-02-06T21:10:43.738Z,99401.04
2018-02-06T21:13:11.409Z,99410.58
2018-02-06T21:15:39.124Z,99406.61
2018-02-06T21:18:06.874Z,99402.48
2018-02-06T21:20:34.599Z,99401.41
2018-02-06T21:23:02.211Z,99404.79
2018-02-06T21:25:29.783Z,99404.73
2018-02-06T21:27:57.558Z,99402.37
2018-02-06T21:30:25.137Z,99405.16
2018-02-06T21:32:52.717Z,99404.50
2018-02-06T21:35:20.369Z,99403.42
2018-02-06T21:37:47.948Z,99391.86
2018-02-06T21:40:15.526Z,99393.91
2018-02-06T21:42:43.141Z,99395.14
2018-02-06T21:45:10.737Z,99392.83
2018-02-06T21:47:38.316Z,99395.52
2018-02-06T21:50:05.959Z,99391.50
2018-02-06T21:52:33.598Z,99386.58
2018-02-06T21:55:01.234Z,99390.07
2018-02-06T21:57:28.864Z,99400.42
2018-02-06T21:59:56.458Z,99407.37
2018-02-06T22:02:24.119Z,99411.61
2018-02-06T22:04:51.768Z,99416.05
2018-02-06T22:07:19.324Z,99421.64
2018-02-06T22:09:46.899Z,99415.96
2018-02-06T22:12:14.510Z,99426.77
2018-02-06T22:14:42.078Z,99437.78
2018-02-06T22:17:09.718Z,99431.16
2018-02-06T22:19:37.689Z,99439.70
2018-02-06T22:22:05.279Z,99438.64
2018-02-06T22:24:32.839Z,99437.78
2018-02-06T22:27:00.982Z,99439.31
2018-02-06T22:29:28.698Z,99439.05
2018-02-06T22:31:56.260Z,99434.70
2018-02-06T22:34:26.168Z,99439.48
2018-02-06T22:36:53.802Z,99446.97
2018-02-06T22:39:21.392Z,99454.11
2018-02-06T22:41:49.012Z,99449.44
2018-02-06T22:44:16.649Z,99456.64
2018-02-06T22:46:44.288Z,99455.02
2018-02-06T22:49:11.909Z,99455.69
2018-02-06T22:51:39.473Z,99458.44
2018-02-06T22:54:07.054Z,99454.45
2018-02-06T22:56:34.685Z,99451.00
2018-02-06T22:59:02.280Z,99453.48
2018-02-06T23:01:29.849Z,99454.53
2018-02-06T23:03:57.469Z,99453.58
2018-02-06T23:06:25.091Z,99459.56
2018-02-06T23:08:52.665Z,99459.75
2018-02-06T23:11:20.361Z,99461.27
2018-02-06T23:13:48.312Z,99461.26
2018-02-06T23:16:16.448Z,99459.63
2018-02-06T23:18:45.173Z,99463.82
2018-02-06T23:21:12.796Z,99463.14
2018-02-06T23:23:40.381Z,99453.08
2018-02-06T23:26:08.664Z,99446.84
2018-02-06T23:28:36.228Z,99446.89
2018-02-06T23:31:03.883Z,99457.75
2018-02-06T23:33:31.505Z,99446.04
2018-02-06T23:35:59.089Z,99444.53
2018-02-06T23:38:26.657Z,99450.46
2018-02-06T23:40:54.358Z,99451.66
2018-02-06T23:43:21.923Z,99449.14
2018-02-06T23:45:49.560Z,99456.86
2018-02-06T23:48:17.244Z,99459.34
2018-02-06T23:50:44.840Z,99454.88
2018-02-06T23:53:12.648Z,99456.88
2018-02-06T23:55:40.322Z,99455.55
2018-02-06T23:58:07.894Z,99450.44
